createdAt,value
2022-08-17T00:01:51.795Z,100779.88
2022-08-17T00:04:23.710Z,100778.81
2022-08-17T00:06:53.575Z,100773.44
2022-08-17T00:09:22.107Z,100768.31
2022-08-17T00:12:42.248Z,100762.31
2022-08-17T00:14:40.189Z,100763.69
2022-08-17T00:17:08.734Z,100761.06
2022-08-17T00:19:38.690Z,100761.78
2022-08-17T00:22:34.963Z,100758.66
2022-08-17T00:24:56.399Z,100759.63
2022-08-17T00:27:25.992Z,100762.25
2022-08-17T00:29:54.521Z,100758.75
2022-08-17T00:33:22.799Z,100757.06
2022-08-17T00:35:17.889Z,100763.72
2022-08-17T00:37:46.404Z,100757.63
2022-08-17T00:40:17.015Z,100762.88
2022-08-17T00:42:48.009Z,100764.75
2022-08-17T00:45:20.526Z,100763.94
2022-08-17T00:47:49.724Z,100763.16
2022-08-17T00:50:20.920Z,100764.94
2022-08-17T00:52:55.819Z,100772.00
2022-08-17T00:55:25.230Z,100766.97
2022-08-17T00:58:00.087Z,100762.66
2022-08-17T01:00:30.829Z,100761.06
2022-08-17T01:03:03.329Z,100751.69
2022-08-17T01:05:38.539Z,100750.03
2022-08-17T01:08:14.035Z,100741.94
2022-08-17T01:10:57.445Z,100741.31
2022-08-17T01:13:35.502Z,100748.03
2022-08-17T01:16:13.068Z,100747.41
2022-08-17T01:18:42.469Z,100748.97
2022-08-17T01:21:20.499Z,100750.03
2022-08-17T01:23:50.795Z,100751.91
2022-08-17T01:26:20.739Z,100745.81
2022-08-17T01:28:54.397Z,100755.63
2022-08-17T01:31:29.264Z,100748.78
2022-08-17T01:33:59.705Z,100754.88
2022-08-17T01:36:30.779Z,100754.75
2022-08-17T01:39:01.001Z,100753.09
2022-08-17T01:41:30.729Z,100745.53
2022-08-17T01:44:02.954Z,100743.94
2022-08-17T01:46:34.908Z,100736.81
2022-08-17T01:49:07.020Z,100731.97
2022-08-17T01:51:35.759Z,100742.50
2022-08-17T01:54:09.953Z,100747.84
2022-08-17T01:56:41.499Z,100736.69
2022-08-17T01:59:10.069Z,100748.16
2022-08-17T02:01:39.125Z,100739.22
2022-08-17T02:04:09.532Z,100741.13
2022-08-17T02:06:52.558Z,100745.75
2022-08-17T02:09:26.061Z,100743.22
2022-08-17T02:11:58.661Z,100747.41
2022-08-17T02:14:28.077Z,100739.00
2022-08-17T02:16:56.769Z,100746.88
2022-08-17T02:19:25.251Z,100747.22
2022-08-17T02:21:55.720Z,100756.88
2022-08-17T02:25:00.252Z,100750.66
2022-08-17T02:27:16.892Z,100755.28
2022-08-17T02:29:45.415Z,100755.19
2022-08-17T02:32:27.185Z,100751.72
2022-08-17T02:34:57.484Z,100753.41
2022-08-17T02:37:26.269Z,100761.50
2022-08-17T02:39:58.377Z,100753.81
2022-08-17T02:42:31.683Z,100752.97
2022-08-17T02:45:00.723Z,100752.03
2022-08-17T02:47:29.988Z,100748.47
2022-08-17T02:49:58.661Z,100744.25
2022-08-17T02:52:41.961Z,100742.78
2022-08-17T02:55:16.391Z,100734.81
2022-08-17T02:57:45.528Z,100735.75
2022-08-17T03:00:16.808Z,100737.66
2022-08-17T03:02:47.158Z,100736.91
2022-08-17T03:05:19.109Z,100737.66
2022-08-17T03:07:48.229Z,100745.63
2022-08-17T03:10:18.718Z,100737.94
2022-08-17T03:12:48.050Z,100744.88
2022-08-17T03:15:20.239Z,100750.44
2022-08-17T03:17:49.509Z,100752.03
2022-08-17T03:20:20.442Z,100752.22
2022-08-17T03:22:53.357Z,100748.03
2022-08-17T03:25:26.917Z,100756.66
2022-08-17T03:27:56.972Z,100754.22
2022-08-17T03:30:26.759Z,100756.84
2022-08-17T03:32:57.480Z,100759.47
2022-08-17T03:35:29.880Z,100756.22
2022-08-17T03:38:00.375Z,100764.19
2022-08-17T03:40:34.478Z,100763.13
2022-08-17T03:43:21.091Z,100766.81
2022-08-17T03:46:24.910Z,100763.44
2022-08-17T03:49:13.031Z,100765.41
2022-08-17T03:51:58.539Z,100776.75
2022-08-17T03:54:44.756Z,100773.94
2022-08-17T03:57:14.387Z,100772.66
2022-08-17T03:59:42.959Z,100778.03
2022-08-17T04:02:17.669Z,100783.16
2022-08-17T04:04:46.289Z,100782.41
2022-08-17T04:07:14.813Z,100782.41
2022-08-17T04:09:44.028Z,100785.91
2022-08-17T04:12:16.893Z,100788.69
2022-08-17T04:14:53.187Z,100786.16
2022-08-17T04:17:24.901Z,100787.81
2022-08-17T04:19:53.971Z,100786.16
2022-08-17T04:22:30.869Z,100777.56
2022-08-17T04:25:00.277Z,100781.75
2022-08-17T04:27:30.529Z,100784.69
2022-08-17T04:29:59.318Z,100779.94
2022-08-17T04:33:00.440Z,100776.16
2022-08-17T04:35:20.889Z,100778.59
2022-08-17T04:37:49.630Z,100773.97
2022-08-17T04:40:36.680Z,100769.88
2022-08-17T04:43:09.140Z,100778.59
2022-08-17T04:45:55.067Z,100780.47
2022-08-17T04:48:35.368Z,100775.13
2022-08-17T04:51:07.899Z,100776.44
2022-08-17T04:53:36.551Z,100781.81
2022-08-17T04:56:05.773Z,100784.44
2022-08-17T04:58:35.849Z,100784.44
2022-08-17T05:01:06.069Z,100780.03
2022-08-17T05:03:35.629Z,100781.91
2022-08-17T05:06:04.749Z,100784.63
2022-08-17T05:08:33.349Z,100780.03
2022-08-17T05:11:02.234Z,100781.91
2022-08-17T05:13:31.092Z,100788.09
2022-08-17T05:16:03.629Z,100786.63
2022-08-17T05:18:32.699Z,100794.50
2022-08-17T05:21:01.821Z,100793.66
2022-08-17T05:23:42.070Z,100798.66
2022-08-17T05:26:26.297Z,100798.78
2022-08-17T05:29:02.535Z,100797.94
2022-08-17T05:31:33.152Z,100796.16
2022-08-17T05:34:01.784Z,100791.88
2022-08-17T05:36:43.542Z,100794.50
2022-08-17T05:39:15.713Z,100795.41
2022-08-17T05:41:45.555Z,100798.03
2022-08-17T05:44:15.706Z,100807.59
2022-08-17T05:46:49.491Z,100803.28
2022-08-17T05:49:20.911Z,100809.28
2022-08-17T05:52:07.789Z,100809.16
2022-08-17T05:54:47.939Z,100808.53
2022-08-17T05:57:39.608Z,100813.69
2022-08-17T06:00:20.976Z,100814.53
2022-08-17T06:03:13.389Z,100811.06
2022-08-17T06:05:56.336Z,100813.78
2022-08-17T06:08:35.770Z,100819.97
2022-08-17T06:11:15.741Z,100814.72
2022-08-17T06:14:05.382Z,100820.72
2022-08-17T06:16:40.211Z,100828.47
2022-08-17T06:19:16.589Z,100836.47
2022-08-17T06:21:50.200Z,100829.31
2022-08-17T06:24:29.641Z,100832.91
2022-08-17T06:27:03.100Z,100832.78
2022-08-17T06:29:40.251Z,100834.38
2022-08-17T06:32:12.953Z,100834.19
2022-08-17T06:34:44.700Z,100835.97
2022-08-17T06:37:29.218Z,100829.38
2022-08-17T06:40:14.078Z,100832.66
2022-08-17T06:43:05.025Z,100830.69
2022-08-17T06:45:39.360Z,100834.69
2022-08-17T06:48:15.530Z,100833.59
2022-08-17T06:50:49.723Z,100835.56
2022-08-17T06:53:25.551Z,100830.19
2022-08-17T06:56:01.291Z,100831.16
2022-08-17T06:58:31.772Z,100831.16
2022-08-17T07:01:07.450Z,100842.38
2022-08-17T07:03:41.150Z,100838.06
2022-08-17T07:06:16.106Z,100837.25
2022-08-17T07:08:55.443Z,100840.69
2022-08-17T07:11:29.197Z,100837.03
2022-08-17T07:14:08.901Z,100845.56
2022-08-17T07:16:44.229Z,100846.41
2022-08-17T07:19:14.651Z,100837.47
2022-08-17T07:21:51.910Z,100841.06
2022-08-17T07:24:38.180Z,100831.59
2022-08-17T07:27:09.555Z,100835.59
2022-08-17T07:29:42.371Z,100831.59
2022-08-17T07:32:12.810Z,100831.34
2022-08-17T07:35:11.534Z,100832.44
2022-08-17T07:37:43.840Z,100831.53
2022-08-17T07:40:31.644Z,100833.03
2022-08-17T07:43:22.011Z,100832.44
2022-08-17T07:46:19.300Z,100828.78
2022-08-17T07:48:51.121Z,100826.88
2022-08-17T07:51:25.740Z,100813.00
2022-08-17T07:54:13.127Z,100818.50
2022-08-17T07:56:46.407Z,100831.22
2022-08-17T07:59:23.366Z,100824.47
2022-08-17T08:02:06.313Z,100832.69
2022-08-17T08:07:32.105Z,100838.34
2022-08-17T08:10:10.440Z,100838.19
2022-08-17T08:12:41.730Z,100836.41
2022-08-17T08:15:19.124Z,100842.25
2022-08-17T08:17:55.230Z,100841.41
2022-08-17T08:20:52.145Z,100837.81
2022-08-17T08:23:36.372Z,100843.88
2022-08-17T08:26:21.783Z,100842.38
2022-08-17T08:29:01.872Z,100841.06
2022-08-17T08:31:42.530Z,100845.88
2022-08-17T08:34:49.700Z,100844.41
2022-08-17T08:37:20.775Z,100840.84
2022-08-17T08:40:16.882Z,100845.72
2022-08-17T08:42:56.684Z,100851.97
2022-08-17T08:45:30.780Z,100856.66
2022-08-17T08:48:56.955Z,100852.91
2022-08-17T08:51:09.045Z,100855.47
2022-08-17T08:53:50.033Z,100860.00
2022-08-17T08:56:38.925Z,100861.34
2022-08-17T08:59:21.111Z,100864.94
2022-08-17T09:02:06.770Z,100861.47
2022-08-17T09:05:13.411Z,100859.91
2022-08-17T09:07:54.709Z,100857.81
2022-08-17T09:10:31.381Z,100863.06
2022-08-17T09:13:11.064Z,100862.13
2022-08-17T09:15:46.652Z,100860.97
2022-08-17T09:19:00.480Z,100864.25
2022-08-17T09:21:21.315Z,100865.75
2022-08-17T09:24:08.022Z,100866.63
2022-08-17T09:26:53.051Z,100868.44
2022-08-17T09:29:28.400Z,100861.50
2022-08-17T09:32:03.970Z,100860.34
2022-08-17T09:34:37.530Z,100864.56
2022-08-17T09:37:25.465Z,100861.72
2022-08-17T09:40:13.279Z,100860.69
2022-08-17T09:42:54.691Z,100859.19
2022-08-17T09:45:40.900Z,100859.75
2022-08-17T09:48:28.558Z,100858.78
2022-08-17T09:51:13.261Z,100854.06
2022-08-17T09:53:51.090Z,100869.09
2022-08-17T09:56:48.278Z,100873.84
2022-08-17T09:59:44.718Z,100881.81
2022-08-17T10:02:40.670Z,100885.88
2022-08-17T10:05:21.543Z,100883.75
2022-08-17T10:08:00.614Z,100884.25
2022-08-17T10:10:56.378Z,100878.16
2022-08-17T10:13:37.015Z,100885.72
2022-08-17T10:16:15.578Z,100890.06
2022-08-17T10:18:56.131Z,100884.59
2022-08-17T10:21:47.430Z,100881.22
2022-08-17T10:24:38.790Z,100878.50
2022-08-17T10:27:14.481Z,100886.38
2022-08-17T10:29:49.621Z,100881.75
2022-08-17T10:32:33.077Z,100879.44
2022-08-17T10:35:31.655Z,100866.88
2022-08-17T10:38:41.247Z,100880.06
2022-08-17T10:41:29.190Z,100883.81
2022-08-17T10:44:40.358Z,100880.97
2022-08-17T10:47:23.420Z,100885.81
2022-08-17T10:50:08.929Z,100879.22
2022-08-17T10:52:53.424Z,100892.06
2022-08-17T10:55:26.641Z,100884.28
2022-08-17T10:58:25.219Z,100888.25
2022-08-17T11:01:01.258Z,100887.94
2022-08-17T11:03:36.174Z,100888.31
2022-08-17T11:06:19.680Z,100879.47
2022-08-17T11:09:24.066Z,100878.81
2022-08-17T11:12:15.910Z,100876.00
2022-08-17T11:15:03.089Z,100883.25
2022-08-17T11:18:23.130Z,100884.72
2022-08-17T11:21:27.480Z,100880.75
2022-08-17T11:24:20.838Z,100886.44
2022-08-17T11:27:12.518Z,100891.16
2022-08-17T11:29:58.129Z,100887.88
2022-08-17T11:32:34.590Z,100892.91
2022-08-17T11:35:29.869Z,100883.63
2022-08-17T11:38:16.701Z,100871.44
2022-08-17T11:41:10.825Z,100870.81
2022-08-17T11:44:27.783Z,100875.00
2022-08-17T11:47:37.168Z,100877.03
2022-08-17T11:50:48.698Z,100872.59
2022-08-17T11:54:21.430Z,100865.19
2022-08-17T11:56:51.025Z,100855.53
2022-08-17T11:59:59.890Z,100858.56
2022-08-17T12:02:47.912Z,100857.84
2022-08-17T12:05:35.398Z,100842.38
2022-08-17T12:08:14.981Z,100844.34
2022-08-17T12:10:59.869Z,100842.59
2022-08-17T12:13:38.709Z,100847.66
2022-08-17T12:16:10.690Z,100842.78
2022-08-17T12:18:42.439Z,100844.56
2022-08-17T12:21:40.438Z,100847.25
2022-08-17T12:24:23.164Z,100847.00
2022-08-17T12:26:59.543Z,100839.34
2022-08-17T12:29:35.550Z,100841.44
2022-08-17T12:32:21.103Z,100835.13
2022-08-17T12:34:51.895Z,100842.94
2022-08-17T12:37:22.743Z,100844.59
2022-08-17T12:39:55.378Z,100841.88
2022-08-17T12:42:27.839Z,100831.44
2022-08-17T12:44:57.049Z,100825.72
2022-08-17T12:47:29.353Z,100831.13
2022-08-17T12:50:28.971Z,100829.41
2022-08-17T12:53:01.901Z,100838.44
2022-08-17T12:55:37.154Z,100840.34
2022-08-17T12:58:12.254Z,100841.91
2022-08-17T13:00:52.464Z,100845.75
2022-08-17T13:03:30.738Z,100836.81
2022-08-17T13:06:26.963Z,100831.31
2022-08-17T13:09:01.198Z,100833.72
2022-08-17T13:11:32.313Z,100830.84
2022-08-17T13:14:11.717Z,100813.75
2022-08-17T13:16:40.274Z,100819.03
2022-08-17T13:19:17.759Z,100814.50
2022-08-17T13:22:50.684Z,100813.06
2022-08-17T13:25:22.429Z,100809.38
2022-08-17T13:28:02.817Z,100810.81
2022-08-17T13:30:34.105Z,100812.03
2022-08-17T13:33:57.583Z,100809.88
2022-08-17T13:36:31.044Z,100788.44
2022-08-17T13:39:09.876Z,100796.28
2022-08-17T13:41:39.743Z,100798.03
2022-08-17T13:44:32.800Z,100790.06
2022-08-17T13:47:02.554Z,100791.13
2022-08-17T13:49:49.090Z,100798.69
2022-08-17T13:52:39.135Z,100792.59
2022-08-17T13:55:10.635Z,100784.06
2022-08-17T13:57:39.193Z,100781.28
2022-08-17T14:00:18.423Z,100782.38
2022-08-17T14:02:46.924Z,100783.03
2022-08-17T14:05:15.554Z,100786.38
2022-08-17T14:07:50.302Z,100786.63
2022-08-17T14:10:20.434Z,100787.84
2022-08-17T14:12:50.449Z,100781.59
2022-08-17T14:15:22.134Z,100779.19
2022-08-17T14:17:52.277Z,100775.09
2022-08-17T14:20:22.935Z,100768.75
2022-08-17T14:22:55.994Z,100767.91
2022-08-17T14:25:26.999Z,100769.72
2022-08-17T14:27:56.639Z,100763.88
2022-08-17T14:30:29.728Z,100756.75
2022-08-17T14:32:59.647Z,100767.50
2022-08-17T14:35:29.736Z,100768.13
2022-08-17T14:37:59.966Z,100765.00
2022-08-17T14:40:28.465Z,100757.03
2022-08-17T14:42:58.659Z,100756.34
2022-08-17T14:45:32.723Z,100754.88
2022-08-17T14:48:04.364Z,100749.38
2022-08-17T14:50:35.527Z,100749.38
2022-08-17T14:53:06.917Z,100749.25
2022-08-17T14:55:37.115Z,100749.34
2022-08-17T14:58:05.617Z,100746.16
2022-08-17T15:00:34.266Z,100743.38
2022-08-17T15:03:03.443Z,100740.94
2022-08-17T15:05:34.027Z,100747.41
2022-08-17T15:08:05.780Z,100732.53
2022-08-17T15:10:35.050Z,100727.28
2022-08-17T15:13:03.859Z,100734.91
2022-08-17T15:16:09.955Z,100728.44
2022-08-17T15:19:08.175Z,100730.50
2022-08-17T15:21:39.076Z,100720.41
2022-08-17T15:24:09.974Z,100722.13
2022-08-17T15:26:39.387Z,100723.91
2022-08-17T15:29:10.401Z,100720.81
2022-08-17T15:31:39.222Z,100712.91
2022-08-17T15:34:08.185Z,100724.63
2022-08-17T15:36:37.704Z,100729.31
2022-08-17T15:39:13.984Z,100733.84
2022-08-17T15:41:58.145Z,100728.34
2022-08-17T15:44:32.669Z,100729.03
2022-08-17T15:47:05.197Z,100724.84
2022-08-17T15:49:34.046Z,100728.22
2022-08-17T15:52:02.766Z,100736.34
2022-08-17T15:54:34.880Z,100734.66
2022-08-17T15:57:05.105Z,100727.63
2022-08-17T15:59:33.725Z,100731.09
2022-08-17T16:03:13.587Z,100725.56
2022-08-17T16:04:52.290Z,100724.03
2022-08-17T16:07:26.584Z,100722.25
2022-08-17T16:09:57.175Z,100728.59
2022-08-17T16:12:26.825Z,100726.31
2022-08-17T16:14:58.545Z,100721.41
2022-08-17T16:17:39.790Z,100721.25
2022-08-17T16:20:10.474Z,100717.94
2022-08-17T16:22:50.645Z,100720.66
2022-08-17T16:25:40.298Z,100726.31
2022-08-17T16:28:17.775Z,100715.41
2022-08-17T16:30:46.589Z,100711.22
2022-08-17T16:33:16.903Z,100713.25
2022-08-17T16:35:47.305Z,100705.16
2022-08-17T16:38:16.065Z,100713.94
2022-08-17T16:40:46.075Z,100705.06
2022-08-17T16:43:15.585Z,100705.91
2022-08-17T16:45:47.477Z,100707.72
2022-08-17T16:48:18.825Z,100704.25
2022-08-17T16:51:03.665Z,100702.41
2022-08-17T17:17:16.829Z,100688.53
2022-08-17T17:19:52.405Z,100695.47
2022-08-17T17:22:25.464Z,100688.91
2022-08-17T17:25:11.094Z,100692.00
2022-08-17T17:27:47.546Z,100681.47
2022-08-17T17:30:21.568Z,100673.78
2022-08-17T17:32:55.836Z,100676.91
2022-08-17T17:35:31.896Z,100660.38
2022-08-17T17:38:05.139Z,100666.34
2022-08-17T17:40:38.794Z,100671.50
2022-08-17T17:43:36.853Z,100665.41
2022-08-17T17:46:26.784Z,100663.72
2022-08-17T17:48:52.165Z,100664.69
2022-08-17T17:52:06.401Z,100668.41
2022-08-17T17:54:32.825Z,100667.66
2022-08-17T17:57:08.596Z,100673.06
2022-08-17T17:59:53.515Z,100665.16
2022-08-17T18:02:52.884Z,100674.72
2022-08-17T18:05:43.030Z,100676.63
2022-08-17T18:09:03.308Z,100678.88
2022-08-17T18:11:59.994Z,100681.88
2022-08-17T18:14:47.995Z,100682.50
2022-08-17T18:17:18.376Z,100687.63
2022-08-17T18:19:48.469Z,100687.75
2022-08-17T18:22:21.180Z,100685.00
2022-08-17T18:24:56.075Z,100681.53
2022-08-17T18:27:32.454Z,100684.75
2022-08-17T18:30:08.611Z,100689.03
2022-08-17T18:32:40.274Z,100684.47
2022-08-17T18:35:30.637Z,100684.97
2022-08-17T18:38:21.569Z,100688.53
2022-08-17T18:41:01.265Z,100690.25
2022-08-17T18:43:44.009Z,100689.41
2022-08-17T18:46:29.763Z,100691.22
2022-08-17T18:49:02.139Z,100674.13
2022-08-17T18:51:40.440Z,100673.97
2022-08-17T18:54:22.505Z,100670.22
2022-08-17T18:56:55.228Z,100673.59
2022-08-17T18:59:30.705Z,100679.25
2022-08-17T19:02:11.633Z,100686.16
2022-08-17T19:04:59.282Z,100688.97
2022-08-17T19:07:31.736Z,100697.53
2022-08-17T19:10:11.665Z,100694.78
2022-08-17T19:12:45.425Z,100685.44
2022-08-17T19:15:16.871Z,100690.41
2022-08-17T19:17:49.635Z,100696.19
2022-08-17T19:20:23.415Z,100692.22
2022-08-17T19:23:04.984Z,100683.53
2022-08-17T19:25:40.444Z,100685.78
2022-08-17T19:28:15.371Z,100692.81
2022-08-17T19:30:52.005Z,100684.91
2022-08-17T19:33:20.915Z,100687.81
2022-08-17T19:35:59.291Z,100691.34
2022-08-17T19:38:38.101Z,100689.19
2022-08-17T19:41:14.656Z,100691.72
2022-08-17T19:44:06.205Z,100701.19
2022-08-17T19:46:50.072Z,100701.28
2022-08-17T19:49:41.415Z,100700.31
2022-08-17T19:52:24.337Z,100711.59
2022-08-17T19:55:09.404Z,100719.38
2022-08-17T19:57:50.713Z,100725.56
2022-08-17T20:00:20.907Z,100730.00
2022-08-17T20:02:56.429Z,100725.69
2022-08-17T20:05:30.545Z,100720.31
2022-08-17T20:08:04.554Z,100717.69
2022-08-17T20:10:54.743Z,100705.59
2022-08-17T20:13:33.933Z,100696.84
2022-08-17T20:16:03.865Z,100704.88
2022-08-17T20:18:46.016Z,100697.94
2022-08-17T20:21:29.239Z,100708.56
2022-08-17T20:24:03.289Z,100701.63
2022-08-17T20:26:55.302Z,100710.34
2022-08-17T20:29:40.555Z,100707.13
2022-08-17T20:32:28.245Z,100710.69
2022-08-17T20:35:18.092Z,100707.34
2022-08-17T20:37:54.493Z,100704.81
2022-08-17T20:40:30.524Z,100707.56
2022-08-17T20:43:00.124Z,100712.66
2022-08-17T20:46:03.379Z,100709.28
2022-08-17T20:48:38.916Z,100704.03
2022-08-17T20:51:27.496Z,100696.88
2022-08-17T20:54:39.214Z,100693.41
2022-08-17T20:57:14.103Z,100694.47
2022-08-17T21:00:14.285Z,100705.69
2022-08-17T21:02:45.925Z,100710.13
2022-08-17T21:05:38.821Z,100708.44
2022-08-17T21:08:16.385Z,100699.72
2022-08-17T21:10:47.367Z,100694.69
2022-08-17T21:13:51.350Z,100692.88
2022-08-17T21:16:43.545Z,100687.00
2022-08-17T21:19:30.932Z,100688.69
2022-08-17T21:22:12.269Z,100681.63
2022-08-17T21:24:52.985Z,100681.75
2022-08-17T21:27:30.455Z,100675.66
2022-08-17T21:30:22.725Z,100680.06
2022-08-17T21:33:20.444Z,100668.69
2022-08-17T21:35:58.536Z,100670.41
2022-08-17T21:38:35.955Z,100660.94
2022-08-17T21:41:04.641Z,100672.28
2022-08-17T21:43:36.785Z,100666.28
2022-08-17T21:46:09.791Z,100662.34
2022-08-17T21:48:45.361Z,100663.06
2022-08-17T21:51:21.174Z,100660.94
2022-08-17T21:53:52.742Z,100659.03
2022-08-17T21:56:29.007Z,100647.44
2022-08-17T21:59:01.162Z,100650.81
2022-08-17T22:01:34.740Z,100647.34
2022-08-17T22:04:06.876Z,100647.22
2022-08-17T22:06:41.121Z,100652.38
2022-08-17T22:09:19.485Z,100640.91
2022-08-17T22:12:07.746Z,100636.63
2022-08-17T22:14:53.296Z,100640.06
2022-08-17T22:17:26.127Z,100634.69
2022-08-17T22:19:57.780Z,100632.91
2022-08-17T22:22:35.158Z,100630.28
2022-08-17T22:25:07.383Z,100624.06
2022-08-17T22:27:51.726Z,100622.28
2022-08-17T22:30:35.398Z,100617.97
2022-08-17T22:33:31.698Z,100607.47
2022-08-17T22:36:14.862Z,100620.72
2022-08-17T22:38:45.287Z,100612.72
2022-08-17T22:41:35.793Z,100615.56
2022-08-17T22:44:21.256Z,100611.59
2022-08-17T22:46:55.523Z,100610.84
2022-08-17T22:49:27.686Z,100608.47
2022-08-17T22:52:29.094Z,100612.78
2022-08-17T22:55:33.505Z,100618.03
2022-08-17T22:58:20.287Z,100618.13
2022-08-17T23:00:50.816Z,100620.75
2022-08-17T23:03:22.384Z,100612.16
2022-08-17T23:06:05.628Z,100602.97
2022-08-17T23:08:36.276Z,100595.91
2022-08-17T23:11:07.539Z,100590.66
2022-08-17T23:13:37.823Z,100590.28
2022-08-17T23:16:06.656Z,100602.09
2022-08-17T23:18:35.756Z,100598.28
2022-08-17T23:21:05.267Z,100592.91
2022-08-17T23:23:33.728Z,100583.25
2022-08-17T23:26:03.157Z,100592.19
2022-08-17T23:28:37.667Z,100589.44
2022-08-17T23:31:07.756Z,100586.81
2022-08-17T23:33:37.487Z,100587.78
2022-08-17T23:36:15.263Z,100591.38
2022-08-17T23:38:47.097Z,100579.16
2022-08-17T23:41:19.887Z,100572.22
2022-08-17T23:43:52.038Z,100584.41
2022-08-17T23:46:25.303Z,100588.84
2022-08-17T23:48:54.838Z,100581.78
2022-08-17T23:51:27.516Z,100580.22
2022-08-17T23:54:02.112Z,100577.47
2022-08-17T23:56:33.828Z,100569.81
2022-08-17T23:59:03.986Z,100569.81
